Accueil
METAR-TAF:

METAR-TAF

Aéroports :

Koror, Babelthuap Island, Palaos

Aéroport international Roman-Tmetuchl

latitude: 07-22N, longitude: 134-32E, altitude: 54 m

Observation

Le bulletin a été fait il y a 44 minutes, à 11:50 UTC
Vent calme
Température 25°C
Humidité 94%
Pression 1009 hPa
Visibilité: 22.5 km
Nuages fragmentés à une hauteur de 1600 ft, Cumulus congestus.
Ciel couvert à une hauteur de 29000 ft

METAR: PTRO 231150Z 00000KT 14SM BKN016TCU OVC290 25/24 A2980 RMK TCU VC ALQDS

Heure: 21:34 (12:34 UTC)

Prévision

Le bulletin a été fait il y a 1 heure et 8 minutes, à 11:26 UTC
Prévision valable du 23 à 12 UTC au 24 à 12 UTC
Vent 5 kt de est
Visibilité: 10 km
Nuages épars à une hauteur de 1600 ft
Nuages fragmentés à une hauteur de 12000 ft
Ciel couvert à une hauteur de 29000 ft
averses à proximité

TAF: PTRO 231126Z 2312/2412 09005KT P6SM VCSH SCT016 BKN120 OVC290

Observations et prévisions météorologiques de plus de 4000 aéroports (messages METAR et TAF).

Les stations disponibles sont représentées par des disques jaunes et rouges sur la carte.

Passer la souris dessus pour voir le nom de la station.

Cliquer dessus pour voir les observations et prévisions météorologiques.

Pour changer de carte: cliquez sur les boutons verts avec une croix noire pour zoomer, sur le bouton vert avec un tiret pour effectuer un zoom arrière, ou sur les flèches vertes pour les cartes adjacentes.


METAR-TAF: